createdAt,value
2023-04-26T00:01:44.225Z,10.41
2023-04-26T00:04:11.795Z,10.64
2023-04-26T00:06:39.377Z,10.64
2023-04-26T00:09:06.988Z,10.65
2023-04-26T00:11:34.107Z,10.43
2023-04-26T00:14:01.537Z,10.61
2023-04-26T00:16:28.535Z,10.63
2023-04-26T00:18:57.968Z,10.38
2023-04-26T00:21:25.055Z,10.20
2023-04-26T00:23:52.457Z,10.67
2023-04-26T00:26:19.435Z,10.69
2023-04-26T00:28:46.968Z,10.59
2023-04-26T00:31:15.893Z,10.03
2023-04-26T00:33:44.094Z,10.61
2023-04-26T00:36:13.395Z,10.52
2023-04-26T00:38:41.332Z,10.40
2023-04-26T00:41:08.370Z,10.48
2023-04-26T00:43:35.880Z,10.44
2023-04-26T00:46:03.425Z,10.42
2023-04-26T00:48:30.751Z,10.44
2023-04-26T00:50:57.681Z,10.43
2023-04-26T00:53:27.212Z,10.41
2023-04-26T00:55:54.479Z,10.41
2023-04-26T00:58:21.906Z,10.42
2023-04-26T01:00:50.416Z,10.42
2023-04-26T01:03:18.160Z,10.43
2023-04-26T01:05:45.633Z,10.46
2023-04-26T01:08:13.020Z,10.38
2023-04-26T01:10:41.508Z,10.45
2023-04-26T01:13:09.091Z,10.47
2023-04-26T01:15:36.773Z,10.47
2023-04-26T01:18:04.185Z,10.46
2023-04-26T01:20:31.201Z,10.44
2023-04-26T01:22:59.962Z,10.46
2023-04-26T01:25:26.994Z,10.47
2023-04-26T01:27:54.179Z,10.45
2023-04-26T01:30:21.085Z,10.45
2023-04-26T01:32:48.414Z,10.45
2023-04-26T01:35:15.896Z,10.41
2023-04-26T01:37:43.356Z,10.40
2023-04-26T01:40:12.824Z,9.94
2023-04-26T01:42:40.476Z,10.15
2023-04-26T01:45:08.013Z,10.37
2023-04-26T01:47:35.261Z,10.35
2023-04-26T01:50:02.357Z,10.25
2023-04-26T01:52:29.630Z,10.36
2023-04-26T01:54:57.403Z,10.26
2023-04-26T01:57:26.011Z,10.33
2023-04-26T01:59:54.344Z,10.30
2023-04-26T02:02:21.852Z,10.26
2023-04-26T02:04:48.940Z,10.30
2023-04-26T02:07:16.226Z,10.23
2023-04-26T02:09:43.209Z,10.26
2023-04-26T02:12:10.517Z,10.22
2023-04-26T02:14:39.024Z,10.15
2023-04-26T02:17:06.399Z,10.05
2023-04-26T02:19:33.710Z,9.99
2023-04-26T02:22:01.108Z,10.00
2023-04-26T02:24:28.023Z,10.01
2023-04-26T02:26:55.370Z,10.06
2023-04-26T02:29:35.900Z,10.07
2023-04-26T02:32:11.621Z,10.08
2023-04-26T02:34:39.154Z,10.02
2023-04-26T02:37:07.467Z,9.93
2023-04-26T02:39:34.529Z,9.99
2023-04-26T02:42:01.911Z,9.91
2023-04-26T02:44:30.631Z,10.19
2023-04-26T02:46:58.005Z,10.18
2023-04-26T02:49:26.416Z,10.15
2023-04-26T02:51:54.343Z,10.11
2023-04-26T02:54:21.371Z,9.76
2023-04-26T02:56:48.633Z,10.21
2023-04-26T02:59:15.899Z,10.21
2023-04-26T03:01:43.290Z,10.31
2023-04-26T03:04:10.567Z,10.34
2023-04-26T03:06:39.223Z,10.33
2023-04-26T03:09:06.156Z,10.35
2023-04-26T03:11:34.234Z,10.36
2023-04-26T03:14:01.316Z,10.12
2023-04-26T03:16:29.025Z,10.32
2023-04-26T03:18:56.144Z,10.05
2023-04-26T03:21:23.420Z,10.12
2023-04-26T03:23:51.799Z,10.28
2023-04-26T03:26:19.701Z,10.18
2023-04-26T03:28:46.753Z,10.09
2023-04-26T03:31:14.057Z,10.47
2023-04-26T03:33:41.027Z,10.47
2023-04-26T03:36:09.367Z,10.48
2023-04-26T03:38:36.343Z,10.44
2023-04-26T03:41:05.136Z,10.27
2023-04-26T03:43:32.576Z,10.40
2023-04-26T03:46:01.153Z,10.31
2023-04-26T03:48:28.095Z,10.41
2023-04-26T03:50:55.356Z,10.45
2023-04-26T03:53:23.009Z,9.96
2023-04-26T03:55:50.287Z,10.45
2023-04-26T03:58:18.624Z,10.36
2023-04-26T04:00:46.170Z,10.46
2023-04-26T04:03:13.337Z,10.47
2023-04-26T04:05:41.285Z,10.51
2023-04-26T04:08:08.350Z,10.54
2023-04-26T04:10:36.954Z,10.54
2023-04-26T04:13:04.225Z,10.14
2023-04-26T04:15:32.966Z,10.33
2023-04-26T04:18:00.323Z,10.53
2023-04-26T04:20:27.755Z,10.58
2023-04-26T04:22:55.297Z,10.64
2023-04-26T04:25:23.070Z,10.31
2023-04-26T04:30:17.809Z,10.27
2023-04-26T04:32:46.912Z,10.69
2023-04-26T04:35:14.996Z,10.64
2023-04-26T04:37:41.988Z,10.77
2023-04-26T04:40:11.688Z,10.70
2023-04-26T04:42:39.145Z,10.85
2023-04-26T04:45:07.828Z,10.88
2023-04-26T04:47:37.702Z,10.92
2023-04-26T04:50:07.871Z,10.95
2023-04-26T04:52:34.817Z,10.95
2023-04-26T04:55:02.227Z,10.98
2023-04-26T04:57:29.801Z,11.00
2023-04-26T04:59:57.063Z,11.04
2023-04-26T05:02:24.344Z,10.99
2023-04-26T05:04:51.803Z,10.86
2023-04-26T05:07:20.194Z,11.04
2023-04-26T05:09:47.635Z,11.07
2023-04-26T05:12:14.537Z,11.04
2023-04-26T05:14:41.871Z,11.00
2023-04-26T05:17:08.851Z,11.09
2023-04-26T05:19:37.113Z,11.26
2023-04-26T05:22:04.387Z,11.30
2023-04-26T05:24:33.544Z,11.35
2023-04-26T05:27:00.996Z,11.36
2023-04-26T05:29:30.165Z,11.30
2023-04-26T05:31:57.374Z,11.36
2023-04-26T05:34:25.050Z,11.30
2023-04-26T05:36:52.068Z,10.94
2023-04-26T05:39:20.680Z,11.30
2023-04-26T05:41:49.191Z,11.29
2023-04-26T05:44:16.724Z,11.25
2023-04-26T05:46:44.021Z,11.18
2023-04-26T05:49:11.211Z,11.03
2023-04-26T05:51:38.212Z,11.05
2023-04-26T05:54:05.898Z,11.16
2023-04-26T05:56:33.105Z,11.15
2023-04-26T05:59:01.791Z,10.93
2023-04-26T06:01:28.861Z,11.14
2023-04-26T06:03:59.903Z,11.12
2023-04-26T06:06:28.460Z,11.02
2023-04-26T06:08:55.911Z,11.01
2023-04-26T06:11:22.966Z,11.11
2023-04-26T06:13:50.634Z,11.14
2023-04-26T06:16:19.680Z,11.13
2023-04-26T06:18:47.114Z,11.09
2023-04-26T06:21:14.013Z,11.01
2023-04-26T06:23:41.485Z,10.74
2023-04-26T06:26:08.451Z,11.19
2023-04-26T06:28:35.790Z,10.62
2023-04-26T06:31:02.875Z,11.08
2023-04-26T06:33:32.439Z,10.94
2023-04-26T06:35:59.445Z,11.13
2023-04-26T06:38:26.913Z,11.19
2023-04-26T06:40:54.376Z,10.70
2023-04-26T06:43:21.768Z,10.80
2023-04-26T06:45:49.509Z,11.24
2023-04-26T06:48:17.145Z,11.25
2023-04-26T06:50:45.592Z,10.91
2023-04-26T06:53:12.972Z,11.17
2023-04-26T06:55:42.925Z,11.23
2023-04-26T06:58:10.701Z,11.37
2023-04-26T07:00:38.003Z,11.42
2023-04-26T07:03:06.830Z,11.47
2023-04-26T07:05:33.978Z,11.42
2023-04-26T07:08:02.752Z,11.46
2023-04-26T07:10:29.633Z,11.47
2023-04-26T07:12:57.011Z,11.34
2023-04-26T07:15:24.169Z,11.71
2023-04-26T07:17:52.287Z,11.69
2023-04-26T07:20:22.878Z,11.65
2023-04-26T07:22:52.344Z,11.57
2023-04-26T07:25:20.989Z,11.59
2023-04-26T07:27:48.159Z,11.73
2023-04-26T07:30:16.261Z,11.66
2023-04-26T07:32:43.632Z,11.74
2023-04-26T07:35:16.283Z,11.93
2023-04-26T07:37:44.486Z,11.80
2023-04-26T07:40:13.674Z,11.83
2023-04-26T07:42:42.558Z,12.01
2023-04-26T07:45:11.053Z,12.16
2023-04-26T07:47:38.450Z,12.31
2023-04-26T07:50:07.260Z,12.35
2023-04-26T07:52:34.721Z,12.29
2023-04-26T07:55:01.849Z,12.71
2023-04-26T07:57:29.140Z,13.06
2023-04-26T07:59:57.681Z,13.35
2023-04-26T08:02:36.841Z,13.57
2023-04-26T08:05:11.178Z,13.30
2023-04-26T08:07:38.935Z,13.76
2023-04-26T08:10:07.194Z,13.24
2023-04-26T08:12:35.437Z,13.69
2023-04-26T08:15:05.116Z,13.58
2023-04-26T08:17:32.896Z,13.66
2023-04-26T08:19:59.892Z,13.49
2023-04-26T08:22:27.573Z,13.93
2023-04-26T08:24:55.963Z,14.05
2023-04-26T08:27:23.883Z,14.28
2023-04-26T08:29:51.259Z,14.33
2023-04-26T08:32:20.375Z,14.43
2023-04-26T08:34:48.686Z,14.71
2023-04-26T08:37:16.508Z,14.96
2023-04-26T08:39:43.473Z,14.61
2023-04-26T08:42:14.544Z,15.18
2023-04-26T08:44:42.895Z,14.83
2023-04-26T08:47:16.808Z,15.16
2023-04-26T08:49:48.755Z,14.75
2023-04-26T08:52:17.185Z,15.04
2023-04-26T08:54:46.860Z,15.18
2023-04-26T08:57:15.562Z,15.25
2023-04-26T08:59:44.305Z,15.40
2023-04-26T09:02:17.214Z,15.51
2023-04-26T09:04:46.660Z,15.28
2023-04-26T09:07:21.320Z,15.29
2023-04-26T09:09:52.864Z,15.11
2023-04-26T09:12:20.813Z,14.93
2023-04-26T09:14:48.506Z,15.35
2023-04-26T09:17:26.188Z,15.61
2023-04-26T09:19:55.047Z,15.77
2023-04-26T09:22:29.889Z,15.48
2023-04-26T09:24:57.417Z,15.37
2023-04-26T09:27:33.295Z,15.65
2023-04-26T09:30:05.984Z,15.44
2023-04-26T09:32:53.707Z,15.40
2023-04-26T09:35:29.127Z,15.23
2023-04-26T09:38:03.372Z,15.33
2023-04-26T09:40:34.640Z,15.45
2023-04-26T09:43:04.052Z,15.23
2023-04-26T09:45:32.311Z,15.72
2023-04-26T09:48:20.527Z,15.48
2023-04-26T09:50:50.703Z,15.72
2023-04-26T09:53:34.265Z,15.67
2023-04-26T09:56:08.855Z,15.52
2023-04-26T09:58:37.571Z,15.49
2023-04-26T10:01:08.543Z,15.86
2023-04-26T10:03:37.322Z,15.53
2023-04-26T10:06:06.719Z,15.74
2023-04-26T10:08:34.409Z,15.69
2023-04-26T10:11:04.203Z,15.57
2023-04-26T10:13:33.173Z,15.48
2023-04-26T10:16:01.969Z,15.46
2023-04-26T10:18:30.528Z,15.65
2023-04-26T10:21:00.093Z,15.51
2023-04-26T10:23:29.382Z,15.75
2023-04-26T10:25:56.514Z,15.74
2023-04-26T10:28:58.930Z,15.54
2023-04-26T10:32:02.463Z,15.46
2023-04-26T10:34:31.459Z,15.41
2023-04-26T10:37:09.255Z,15.11
2023-04-26T10:39:39.077Z,15.63
2023-04-26T10:42:24.029Z,15.76
2023-04-26T10:44:52.471Z,15.75
2023-04-26T10:47:28.112Z,15.67
2023-04-26T10:50:05.647Z,15.55
2023-04-26T10:52:33.862Z,15.40
2023-04-26T10:55:02.865Z,14.82
2023-04-26T10:57:44.563Z,15.11
2023-04-26T11:00:21.306Z,14.85
2023-04-26T11:02:57.489Z,14.77
2023-04-26T11:05:53.827Z,14.91
2023-04-26T11:08:25.041Z,14.83
2023-04-26T11:10:59.142Z,14.89
2023-04-26T11:13:26.705Z,14.71
2023-04-26T11:16:00.113Z,14.29
2023-04-26T11:18:27.485Z,15.02
2023-04-26T11:20:55.082Z,15.19
2023-04-26T11:23:23.322Z,15.33
2023-04-26T11:25:51.460Z,15.42
2023-04-26T11:28:20.881Z,15.75
2023-04-26T11:30:49.236Z,15.84
2023-04-26T11:33:18.816Z,16.07
2023-04-26T11:35:48.004Z,16.22
2023-04-26T11:38:15.724Z,16.08
2023-04-26T11:40:43.549Z,16.21
2023-04-26T11:43:11.733Z,16.74
2023-04-26T11:45:41.029Z,16.43
2023-04-26T11:48:11.180Z,16.20
2023-04-26T11:50:39.945Z,16.70
2023-04-26T11:53:08.793Z,17.12
2023-04-26T11:55:36.183Z,17.33
2023-04-26T11:58:11.711Z,17.57
2023-04-26T12:00:59.166Z,17.24
2023-04-26T12:03:30.577Z,17.53
2023-04-26T12:05:58.492Z,17.63
2023-04-26T12:08:26.516Z,17.47
2023-04-26T12:10:54.147Z,17.06
2023-04-26T12:13:21.384Z,16.75
2023-04-26T12:15:50.412Z,16.56
2023-04-26T12:18:18.912Z,16.82
2023-04-26T12:20:46.939Z,16.83
2023-04-26T12:23:16.507Z,16.39
2023-04-26T12:25:53.504Z,16.47
2023-04-26T12:28:20.882Z,16.42
2023-04-26T12:30:49.066Z,16.68
2023-04-26T12:33:17.928Z,16.58
2023-04-26T12:35:47.033Z,16.50
2023-04-26T12:38:15.778Z,16.93
2023-04-26T12:40:46.067Z,16.70
2023-04-26T12:43:13.301Z,16.07
2023-04-26T12:45:40.592Z,16.43
2023-04-26T12:48:08.151Z,16.46
2023-04-26T12:50:35.583Z,16.89
2023-04-26T12:53:04.513Z,17.05
2023-04-26T12:55:33.058Z,17.21
2023-04-26T12:58:02.683Z,17.25
2023-04-26T13:00:30.144Z,17.25
2023-04-26T13:02:57.491Z,16.82
2023-04-26T13:05:25.494Z,17.31
2023-04-26T13:07:52.660Z,17.00
2023-04-26T13:10:21.401Z,16.93
2023-04-26T13:12:48.532Z,16.66
2023-04-26T13:15:17.627Z,16.89
2023-04-26T13:17:46.430Z,17.41
2023-04-26T13:20:13.896Z,17.42
2023-04-26T13:22:42.533Z,17.01
2023-04-26T13:25:11.333Z,17.53
2023-04-26T13:27:39.885Z,17.39
2023-04-26T13:30:08.590Z,16.88
2023-04-26T13:32:36.268Z,17.30
2023-04-26T13:35:04.414Z,16.82
2023-04-26T13:37:31.776Z,17.18
2023-04-26T13:39:59.997Z,17.11
2023-04-26T13:42:27.569Z,17.03
2023-04-26T13:44:56.406Z,16.83
2023-04-26T13:47:23.684Z,16.64
2023-04-26T13:49:51.291Z,16.18
2023-04-26T13:52:18.642Z,16.43
2023-04-26T13:54:46.042Z,16.36
2023-04-26T13:57:13.385Z,16.11
2023-04-26T13:59:40.990Z,15.88
2023-04-26T14:02:10.319Z,15.81
2023-04-26T14:04:38.422Z,15.99
2023-04-26T14:07:06.154Z,15.70
2023-04-26T14:09:33.677Z,15.76
2023-04-26T14:12:08.085Z,16.08
2023-04-26T14:14:36.541Z,16.26
2023-04-26T14:17:03.865Z,16.68
2023-04-26T14:19:32.448Z,15.78
2023-04-26T14:21:59.643Z,16.23
2023-04-26T14:24:26.907Z,16.37
2023-04-26T14:26:53.987Z,16.46
2023-04-26T14:29:21.345Z,15.89
2023-04-26T14:31:48.397Z,15.75
2023-04-26T14:34:15.825Z,15.55
2023-04-26T14:36:44.440Z,15.34
2023-04-26T14:39:11.784Z,15.30
2023-04-26T14:41:38.755Z,15.43
2023-04-26T14:44:06.232Z,15.85
2023-04-26T14:46:33.273Z,15.78
2023-04-26T14:49:00.798Z,15.65
2023-04-26T14:51:28.739Z,15.50
2023-04-26T14:53:57.461Z,15.45
2023-04-26T14:56:24.464Z,15.17
2023-04-26T14:58:51.847Z,15.37
2023-04-26T15:01:18.929Z,15.42
2023-04-26T15:03:46.803Z,15.13
2023-04-26T15:06:14.290Z,15.36
2023-04-26T15:08:41.745Z,15.20
2023-04-26T15:11:10.349Z,15.09
2023-04-26T15:13:37.525Z,15.69
2023-04-26T15:16:07.563Z,15.06
2023-04-26T15:18:35.439Z,15.23
2023-04-26T15:21:02.815Z,15.54
2023-04-26T15:23:30.105Z,15.52
2023-04-26T15:26:01.832Z,15.51
2023-04-26T15:28:30.526Z,15.67
2023-04-26T15:31:02.235Z,15.78
2023-04-26T15:33:30.506Z,15.76
2023-04-26T15:35:57.616Z,15.66
2023-04-26T15:38:24.951Z,15.71
2023-04-26T15:40:52.100Z,15.66
2023-04-26T15:43:20.114Z,15.93
2023-04-26T15:45:49.718Z,16.11
2023-04-26T15:48:17.734Z,15.94
2023-04-26T15:50:45.020Z,15.39
2023-04-26T15:53:12.533Z,15.72
2023-04-26T15:55:39.471Z,15.34
2023-04-26T15:58:06.925Z,15.42
2023-04-26T16:00:34.323Z,15.15
2023-04-26T16:03:03.275Z,15.07
2023-04-26T16:05:31.777Z,15.52
2023-04-26T16:07:59.749Z,15.47
2023-04-26T16:10:27.243Z,15.17
2023-04-26T16:12:54.650Z,15.53
2023-04-26T16:15:22.173Z,15.14
2023-04-26T16:17:49.526Z,15.53
2023-04-26T16:20:18.022Z,15.28
2023-04-26T16:22:45.686Z,14.98
2023-04-26T16:25:12.803Z,15.02
2023-04-26T16:27:40.048Z,14.62
2023-04-26T16:30:08.683Z,14.86
2023-04-26T16:32:35.910Z,14.76
2023-04-26T16:35:03.103Z,14.69
2023-04-26T16:37:32.018Z,14.62
2023-04-26T16:39:59.067Z,14.55
2023-04-26T16:42:26.442Z,14.25
2023-04-26T16:44:54.990Z,14.40
2023-04-26T16:47:22.430Z,14.38
2023-04-26T16:49:49.522Z,14.30
2023-04-26T16:52:16.909Z,14.18
2023-04-26T16:54:45.582Z,14.21
2023-04-26T16:57:14.056Z,14.22
2023-04-26T16:59:41.055Z,14.19
2023-04-26T17:02:08.470Z,14.10
2023-04-26T17:04:35.953Z,13.89
2023-04-26T17:07:04.142Z,14.07
2023-04-26T17:09:31.476Z,13.88
2023-04-26T17:12:00.213Z,13.88
2023-04-26T17:14:27.846Z,13.33
2023-04-26T17:16:55.074Z,12.75
2023-04-26T17:19:22.617Z,11.81
2023-04-26T17:21:49.977Z,10.93
2023-04-26T17:24:17.654Z,10.75
2023-04-26T17:26:45.102Z,11.06
2023-04-26T17:29:14.119Z,10.43
2023-04-26T17:31:41.430Z,10.51
2023-04-26T17:34:08.772Z,10.92
2023-04-26T17:36:35.977Z,10.93
2023-04-26T17:39:03.408Z,10.72
2023-04-26T17:41:30.716Z,10.63
2023-04-26T17:43:57.759Z,10.89
2023-04-26T17:46:26.525Z,11.27
2023-04-26T17:48:53.991Z,11.68
2023-04-26T17:51:21.253Z,11.40
2023-04-26T17:53:48.542Z,11.91
2023-04-26T17:56:16.057Z,11.78
2023-04-26T17:58:43.070Z,12.37
2023-04-26T18:01:10.989Z,12.32
2023-04-26T18:03:42.648Z,12.41
2023-04-26T18:06:10.207Z,12.40
2023-04-26T18:08:37.535Z,12.61
2023-04-26T18:11:04.901Z,12.15
2023-04-26T18:13:33.255Z,12.21
2023-04-26T18:16:00.816Z,12.59
2023-04-26T18:18:28.103Z,12.54
2023-04-26T18:20:56.979Z,12.50
2023-04-26T18:23:25.129Z,12.48
2023-04-26T18:25:52.754Z,12.27
2023-04-26T18:28:19.725Z,11.96
2023-04-26T18:30:47.311Z,11.96
2023-04-26T18:33:14.569Z,12.40
2023-04-26T18:35:42.008Z,12.08
2023-04-26T18:38:10.390Z,11.81
2023-04-26T18:40:37.846Z,12.32
2023-04-26T18:43:04.848Z,12.28
2023-04-26T18:45:33.054Z,12.05
2023-04-26T18:48:00.206Z,11.68
2023-04-26T18:50:27.567Z,11.81
2023-04-26T18:52:54.627Z,11.86
2023-04-26T18:55:26.245Z,11.79
2023-04-26T18:57:53.264Z,12.21
2023-04-26T19:00:20.916Z,11.75
2023-04-26T19:02:48.630Z,11.70
2023-04-26T19:05:16.147Z,11.60
2023-04-26T19:07:44.204Z,11.85
2023-04-26T19:10:11.823Z,11.41
2023-04-26T19:12:45.476Z,11.42
2023-04-26T19:15:13.367Z,11.34
2023-04-26T19:17:40.583Z,11.38
2023-04-26T19:20:12.506Z,11.25
2023-04-26T19:22:41.901Z,11.19
2023-04-26T19:25:10.177Z,11.20
2023-04-26T19:27:37.255Z,11.52
2023-04-26T19:30:07.756Z,11.20
2023-04-26T19:32:35.167Z,11.29
2023-04-26T19:35:02.357Z,11.64
2023-04-26T19:37:29.340Z,11.60
2023-04-26T19:39:56.813Z,11.14
2023-04-26T19:42:23.742Z,11.34
2023-04-26T19:44:53.532Z,11.10
2023-04-26T19:47:21.954Z,11.01
2023-04-26T19:49:51.230Z,11.07
2023-04-26T19:52:18.050Z,11.40
2023-04-26T19:54:47.231Z,10.96
2023-04-26T19:57:14.282Z,11.16
2023-04-26T19:59:41.784Z,11.24
2023-04-26T20:02:08.824Z,10.75
2023-04-26T20:04:38.124Z,10.62
2023-04-26T20:07:05.108Z,10.57
2023-04-26T20:09:32.586Z,10.97
2023-04-26T20:12:00.244Z,10.93
2023-04-26T20:14:30.191Z,10.91
2023-04-26T20:17:02.136Z,10.70
2023-04-26T20:19:29.836Z,10.35
2023-04-26T20:21:58.142Z,10.78
2023-04-26T20:24:27.917Z,10.60
2023-04-26T20:26:55.979Z,10.40
2023-04-26T20:29:23.998Z,10.34
2023-04-26T20:31:51.302Z,10.45
2023-04-26T20:34:19.316Z,9.86
2023-04-26T20:36:46.651Z,10.15
2023-04-26T20:39:16.614Z,10.11
2023-04-26T20:41:43.499Z,10.08
2023-04-26T20:44:11.267Z,9.93
2023-04-26T20:46:38.492Z,9.83
2023-04-26T20:49:06.883Z,9.73
2023-04-26T20:51:34.182Z,9.60
2023-04-26T20:54:02.295Z,9.52
2023-04-26T20:56:30.646Z,9.46
2023-04-26T20:58:58.393Z,9.44
2023-04-26T21:01:25.405Z,8.91
2023-04-26T21:03:53.072Z,9.41
2023-04-26T21:06:20.344Z,9.26
2023-04-26T21:08:48.285Z,8.84
2023-04-26T21:11:15.317Z,9.27
2023-04-26T21:13:44.148Z,9.21
2023-04-26T21:16:11.206Z,9.15
2023-04-26T21:18:39.180Z,9.07
2023-04-26T21:21:06.256Z,8.51
2023-04-26T21:23:34.267Z,8.97
2023-04-26T21:26:01.527Z,8.88
2023-04-26T21:28:28.909Z,8.54
2023-04-26T21:31:04.729Z,8.70
2023-04-26T21:33:32.722Z,8.95
2023-04-26T21:36:00.659Z,8.94
2023-04-26T21:38:28.109Z,9.01
2023-04-26T21:40:55.748Z,8.97
2023-04-26T21:43:23.236Z,8.49
2023-04-26T21:45:51.825Z,9.15
2023-04-26T21:48:20.551Z,9.14
2023-04-26T21:50:49.667Z,9.09
2023-04-26T21:53:17.321Z,9.18
2023-04-26T21:55:44.439Z,9.22
2023-04-26T21:58:11.659Z,9.26
2023-04-26T22:00:38.724Z,9.29
2023-04-26T22:03:07.284Z,9.22
2023-04-26T22:05:35.973Z,9.26
2023-04-26T22:08:04.286Z,9.25
2023-04-26T22:10:31.666Z,9.08
2023-04-26T22:12:59.696Z,9.06
2023-04-26T22:15:26.921Z,8.97
2023-04-26T22:17:54.863Z,8.83
2023-04-26T22:20:22.565Z,8.78
2023-04-26T22:22:51.544Z,8.76
2023-04-26T22:25:18.419Z,8.71
2023-04-26T22:27:45.812Z,8.54
2023-04-26T22:30:24.775Z,8.58
2023-04-26T22:32:55.535Z,8.46
2023-04-26T22:35:23.027Z,8.49
2023-04-26T22:37:52.361Z,8.45
2023-04-26T22:40:19.504Z,7.96
2023-04-26T22:42:46.736Z,8.21
2023-04-26T22:45:14.305Z,8.26
2023-04-26T22:47:42.079Z,8.24
2023-04-26T22:50:10.235Z,7.49
2023-04-26T22:52:38.194Z,7.57
2023-04-26T22:55:07.990Z,8.05
2023-04-26T22:57:35.348Z,8.09
2023-04-26T23:00:02.694Z,7.59
2023-04-26T23:02:30.076Z,7.96
2023-04-26T23:04:57.313Z,8.08
2023-04-26T23:07:24.572Z,8.15
2023-04-26T23:09:51.586Z,8.12
2023-04-26T23:12:20.700Z,7.03
2023-04-26T23:14:50.833Z,7.50
2023-04-26T23:17:20.706Z,7.68
2023-04-26T23:19:47.817Z,7.55
2023-04-26T23:22:15.695Z,7.29
2023-04-26T23:24:43.107Z,7.87
2023-04-26T23:27:10.562Z,7.81
2023-04-26T23:29:39.024Z,7.82
2023-04-26T23:32:06.319Z,7.83
2023-04-26T23:34:33.212Z,7.82
2023-04-26T23:37:07.554Z,7.71
2023-04-26T23:39:36.069Z,7.78
2023-04-26T23:42:03.939Z,7.48
2023-04-26T23:44:31.057Z,7.71
2023-04-26T23:47:00.194Z,7.71
2023-04-26T23:49:27.266Z,7.63
2023-04-26T23:51:55.164Z,7.56
2023-04-26T23:54:22.536Z,7.50
2023-04-26T23:56:50.464Z,7.40
2023-04-26T23:59:21.377Z,7.38
